createdAt,value
2018-11-04T00:05:54.370Z,2.50
2018-11-04T00:07:58.447Z,2.60
2018-11-04T00:10:02.484Z,2.67
2018-11-04T00:12:06.563Z,2.57
2018-11-04T00:14:10.651Z,2.57
2018-11-04T00:16:14.689Z,3.03
2018-11-04T00:18:18.733Z,3.20
2018-11-04T00:20:22.851Z,3.27
2018-11-04T00:22:27.005Z,3.30
2018-11-04T00:24:31.070Z,2.73
2018-11-04T00:26:35.325Z,2.70
2018-11-04T00:28:39.399Z,2.97
2018-11-04T00:30:43.485Z,3.10
2018-11-04T00:32:47.535Z,3.00
2018-11-04T00:34:51.606Z,2.90
2018-11-04T00:36:55.686Z,3.13
2018-11-04T00:38:59.791Z,3.43
2018-11-04T00:41:03.823Z,2.90
2018-11-04T00:43:07.853Z,3.40
2018-11-04T00:45:12.429Z,2.87
2018-11-04T00:47:16.442Z,2.97
2018-11-04T00:49:20.493Z,3.97
2018-11-04T00:51:24.509Z,3.17
2018-11-04T00:53:28.541Z,3.20
2018-11-04T00:55:32.590Z,3.20
2018-11-04T00:57:36.633Z,3.40
2018-11-04T00:59:40.688Z,3.37
2018-11-04T01:01:44.800Z,3.30
2018-11-04T01:03:48.885Z,3.30
2018-11-04T01:05:52.944Z,3.33
2018-11-04T01:07:56.981Z,3.27
2018-11-04T01:10:01.359Z,3.50
2018-11-04T01:12:05.771Z,3.90
2018-11-04T01:14:10.534Z,3.60
2018-11-04T01:16:14.620Z,3.23
2018-11-04T01:18:18.665Z,3.37
2018-11-04T01:20:22.672Z,3.77
2018-11-04T01:22:26.726Z,4.10
2018-11-04T01:24:31.332Z,3.43
2018-11-04T01:26:35.305Z,3.40
2018-11-04T01:28:39.344Z,3.93
2018-11-04T01:30:43.383Z,3.87
2018-11-04T01:32:47.452Z,4.27
2018-11-04T01:34:51.543Z,4.63
2018-11-04T01:36:55.688Z,4.50
2018-11-04T01:38:59.778Z,3.87
2018-11-04T01:41:04.437Z,4.00
2018-11-04T01:43:08.472Z,3.70
2018-11-04T01:45:12.601Z,4.00
2018-11-04T01:47:16.648Z,5.07
2018-11-04T01:49:20.701Z,5.20
2018-11-04T01:51:24.810Z,4.33
2018-11-04T01:53:28.851Z,4.10
2018-11-04T01:55:32.943Z,3.70
2018-11-04T01:57:37.273Z,4.30
2018-11-04T01:59:41.319Z,4.33
2018-11-04T02:01:45.354Z,4.43
2018-11-04T02:03:49.385Z,4.37
2018-11-04T02:05:54.273Z,3.98
2018-11-04T02:07:58.338Z,4.08
2018-11-04T02:10:02.375Z,4.13
2018-11-04T02:12:06.787Z,4.47
2018-11-04T02:14:10.806Z,4.77
2018-11-04T02:16:14.891Z,4.83
2018-11-04T02:18:18.922Z,4.97
2018-11-04T02:20:22.974Z,4.73
2018-11-04T02:22:27.066Z,4.53
2018-11-04T02:24:31.134Z,4.70
2018-11-04T02:26:35.204Z,4.20
2018-11-04T02:28:39.256Z,4.43
2018-11-04T02:30:43.346Z,4.70
2018-11-04T02:32:47.582Z,4.45
2018-11-04T02:34:51.654Z,4.90
2018-11-04T02:36:55.723Z,4.97
2018-11-04T02:38:59.779Z,5.20
2018-11-04T02:41:03.812Z,4.53
2018-11-04T02:43:07.956Z,4.97
2018-11-04T02:45:11.974Z,4.83
2018-11-04T02:47:16.047Z,4.10
2018-11-04T02:49:20.105Z,4.80
2018-11-04T02:51:24.154Z,5.00
2018-11-04T02:53:28.309Z,4.70
2018-11-04T02:55:32.373Z,5.58
2018-11-04T02:57:36.649Z,5.10
2018-11-04T02:59:40.678Z,5.40
2018-11-04T03:01:44.788Z,5.17
2018-11-04T03:03:48.806Z,5.40
2018-11-04T03:05:52.859Z,4.57
2018-11-04T03:07:56.874Z,5.13
2018-11-04T03:10:00.902Z,5.13
2018-11-04T03:12:05.172Z,4.45
2018-11-04T03:14:09.222Z,5.62
2018-11-04T03:16:13.302Z,5.20
2018-11-04T03:18:17.421Z,5.57
2018-11-04T03:20:21.462Z,5.70
2018-11-04T03:22:25.546Z,5.40
2018-11-04T03:24:30.018Z,6.27
2018-11-04T03:26:35.757Z,5.83
2018-11-04T03:28:39.798Z,5.90
2018-11-04T03:30:43.870Z,5.95
2018-11-04T03:32:47.914Z,5.33
2018-11-04T03:34:51.974Z,4.90
2018-11-04T03:36:56.032Z,5.40
2018-11-04T03:39:00.051Z,5.40
2018-11-04T03:41:04.168Z,5.67
2018-11-04T03:43:08.223Z,5.70
2018-11-04T03:45:12.258Z,5.30
2018-11-04T03:47:16.305Z,6.13
2018-11-04T03:49:20.387Z,5.67
2018-11-04T03:51:24.509Z,6.15
2018-11-04T03:53:28.564Z,5.67
2018-11-04T03:55:33.025Z,5.70
2018-11-04T03:57:37.258Z,6.03
2018-11-04T03:59:41.496Z,6.47
2018-11-04T04:01:45.642Z,5.17
2018-11-04T04:03:49.710Z,5.72
2018-11-04T04:05:53.809Z,6.70
2018-11-04T04:07:57.951Z,6.57
2018-11-04T04:10:01.997Z,5.08
2018-11-04T04:12:06.850Z,5.40
2018-11-04T04:14:10.862Z,5.90
2018-11-04T04:16:15.268Z,6.35
2018-11-04T04:18:19.307Z,6.40
2018-11-04T04:20:23.333Z,6.47
2018-11-04T04:22:27.428Z,5.78
2018-11-04T04:24:31.459Z,6.15
2018-11-04T04:26:35.511Z,6.10
2018-11-04T04:28:39.880Z,6.05
2018-11-04T04:30:43.909Z,6.62
2018-11-04T04:32:47.942Z,5.83
2018-11-04T04:34:52.040Z,6.67
2018-11-04T04:36:56.089Z,6.73
2018-11-04T04:39:00.161Z,6.90
2018-11-04T04:41:04.190Z,6.75
2018-11-04T04:43:08.247Z,6.12
2018-11-04T04:45:12.282Z,7.07
2018-11-04T04:47:16.377Z,6.80
2018-11-04T04:49:20.401Z,6.53
2018-11-04T04:51:24.488Z,6.33
2018-11-04T04:53:28.512Z,6.25
2018-11-04T04:55:32.778Z,5.83
2018-11-04T04:57:36.826Z,6.00
2018-11-04T04:59:40.889Z,6.05
2018-11-04T05:01:44.939Z,6.80
2018-11-04T05:03:48.979Z,6.33
2018-11-04T05:05:53.046Z,6.87
2018-11-04T05:07:57.107Z,6.50
2018-11-04T05:10:01.182Z,6.57
2018-11-04T05:12:05.478Z,6.43
2018-11-04T05:14:09.538Z,5.47
2018-11-04T05:16:13.599Z,5.37
2018-11-04T05:18:17.669Z,6.13
2018-11-04T05:20:21.704Z,6.23
2018-11-04T05:22:25.812Z,5.72
2018-11-04T05:24:29.844Z,7.03
2018-11-04T05:26:34.190Z,6.07
2018-11-04T05:28:38.277Z,6.43
2018-11-04T05:30:42.437Z,6.45
2018-11-04T05:32:46.462Z,6.77
2018-11-04T05:34:50.488Z,6.37
2018-11-04T05:36:54.567Z,6.43
2018-11-04T05:38:58.821Z,6.80
2018-11-04T05:41:02.857Z,6.22
2018-11-04T05:43:06.893Z,6.10
2018-11-04T05:45:10.947Z,6.70
2018-11-04T05:47:16.137Z,7.25
2018-11-04T05:49:20.190Z,6.85
2018-11-04T05:51:24.225Z,6.58
2018-11-04T05:53:28.354Z,6.67
2018-11-04T05:55:32.404Z,6.83
2018-11-04T05:57:36.461Z,7.20
2018-11-04T05:59:40.587Z,6.30
2018-11-04T06:01:44.646Z,7.15
2018-11-04T06:03:48.731Z,6.70
2018-11-04T06:05:52.746Z,7.00
2018-11-04T06:07:57.160Z,6.53
2018-11-04T06:10:01.239Z,6.07
2018-11-04T06:12:05.444Z,6.40
2018-11-04T06:14:10.244Z,6.80
2018-11-04T06:16:14.461Z,6.62
2018-11-04T06:18:18.529Z,6.60
2018-11-04T06:20:22.563Z,6.90
2018-11-04T06:22:26.624Z,5.55
2018-11-04T06:24:30.692Z,6.00
2018-11-04T06:26:34.733Z,6.33
2018-11-04T06:28:38.798Z,6.70
2018-11-04T06:30:42.851Z,6.30
2018-11-04T06:32:46.904Z,6.50
2018-11-04T06:34:50.947Z,6.33
2018-11-04T06:36:55.012Z,6.67
2018-11-04T06:38:59.054Z,5.60
2018-11-04T06:41:03.160Z,6.33
2018-11-04T06:43:07.170Z,6.50
2018-11-04T06:45:11.468Z,6.60
2018-11-04T06:47:16.720Z,5.90
2018-11-04T06:49:20.585Z,6.40
2018-11-04T06:51:24.636Z,6.50
2018-11-04T06:53:28.747Z,6.43
2018-11-04T06:55:32.810Z,6.70
2018-11-04T06:57:36.849Z,7.03
2018-11-04T06:59:40.953Z,6.83
2018-11-04T07:01:45.019Z,6.33
2018-11-04T07:04:06.263Z,6.40
2018-11-04T07:06:10.300Z,6.37
2018-11-04T07:08:14.358Z,6.37
2018-11-04T07:10:18.423Z,6.17
2018-11-04T07:12:22.502Z,5.93
2018-11-04T07:14:26.554Z,5.97
2018-11-04T07:16:30.625Z,5.80
2018-11-04T07:18:34.687Z,6.80
2018-11-04T07:20:38.791Z,6.17
2018-11-04T07:22:42.868Z,6.80
2018-11-04T07:24:47.191Z,6.12
2018-11-04T07:26:51.335Z,5.92
2018-11-04T07:28:55.415Z,6.17
2018-11-04T07:30:59.534Z,6.07
2018-11-04T07:33:03.616Z,5.92
2018-11-04T07:35:08.469Z,6.40
2018-11-04T07:37:12.522Z,7.33
2018-11-04T07:39:17.699Z,6.77
2018-11-04T07:41:21.768Z,7.50
2018-11-04T07:43:25.821Z,7.15
2018-11-04T07:45:29.888Z,6.37
2018-11-04T07:47:33.922Z,5.95
2018-11-04T07:49:38.041Z,24.43
2018-11-04T07:51:42.168Z,9.60
2018-11-04T07:53:46.561Z,7.40
2018-11-04T07:55:50.672Z,6.37
2018-11-04T07:57:54.717Z,8.17
2018-11-04T07:59:58.749Z,6.57
2018-11-04T08:02:02.797Z,6.77
2018-11-04T08:04:06.949Z,6.60
2018-11-04T08:06:10.971Z,6.70
2018-11-04T08:08:15.037Z,6.40
2018-11-04T08:10:19.089Z,6.63
2018-11-04T08:12:23.142Z,6.37
2018-11-04T08:14:27.202Z,6.00
2018-11-04T08:16:31.342Z,6.10
2018-11-04T08:18:35.426Z,6.30
2018-11-04T08:20:39.557Z,5.73
2018-11-04T08:22:43.619Z,5.93
2018-11-04T08:24:47.735Z,6.25
2018-11-04T08:26:51.879Z,6.33
2018-11-04T08:28:55.998Z,6.25
2018-11-04T08:31:00.078Z,5.97
2018-11-04T08:33:04.142Z,6.08
2018-11-04T08:35:08.304Z,5.97
2018-11-04T08:37:12.420Z,6.03
2018-11-04T08:39:16.520Z,5.87
2018-11-04T08:41:20.573Z,11.03
2018-11-04T08:43:24.656Z,7.10
2018-11-04T08:45:28.783Z,6.12
2018-11-04T08:47:32.889Z,5.95
2018-11-04T08:49:36.971Z,5.83
2018-11-04T08:51:41.029Z,6.80
2018-11-04T08:53:45.082Z,6.40
2018-11-04T08:55:49.161Z,7.10
2018-11-04T08:57:53.205Z,7.53
2018-11-04T08:59:58.490Z,8.30
2018-11-04T09:02:02.501Z,7.57
2018-11-04T09:04:06.593Z,7.83
2018-11-04T09:06:10.697Z,17.30
2018-11-04T09:08:14.779Z,10.27
2018-11-04T09:10:18.906Z,8.70
2018-11-04T09:12:22.967Z,9.30
2018-11-04T09:14:27.190Z,9.40
2018-11-04T09:16:31.170Z,9.40
2018-11-04T09:18:35.302Z,10.08
2018-11-04T09:20:39.357Z,11.03
2018-11-04T09:22:43.936Z,8.43
2018-11-04T09:24:47.973Z,8.83
2018-11-04T09:26:52.177Z,8.50
2018-11-04T09:28:56.255Z,8.73
2018-11-04T09:31:01.146Z,7.37
2018-11-04T09:33:05.511Z,7.43
2018-11-04T09:35:10.544Z,8.13
2018-11-04T09:37:14.540Z,6.90
2018-11-04T09:39:18.597Z,7.20
2018-11-04T09:41:22.685Z,7.33
2018-11-04T09:43:26.800Z,6.77
2018-11-04T09:45:30.889Z,6.73
2018-11-04T09:47:35.014Z,7.10
2018-11-04T09:49:39.121Z,6.93
2018-11-04T09:51:43.204Z,7.45
2018-11-04T09:53:47.310Z,6.37
2018-11-04T09:55:51.450Z,7.23
2018-11-04T09:57:55.534Z,7.10
2018-11-04T09:59:59.741Z,6.70
2018-11-04T10:02:03.895Z,7.57
2018-11-04T10:04:07.946Z,7.37
2018-11-04T10:06:12.014Z,7.33
2018-11-04T10:08:16.093Z,7.03
2018-11-04T10:10:21.317Z,7.37
2018-11-04T10:12:25.557Z,7.72
2018-11-04T10:14:30.662Z,7.28
2018-11-04T10:16:34.771Z,7.15
2018-11-04T10:18:38.870Z,7.00
2018-11-04T10:20:43.515Z,7.03
2018-11-04T10:22:47.153Z,7.30
2018-11-04T10:24:51.349Z,6.97
2018-11-04T10:26:55.489Z,7.43
2018-11-04T10:28:59.634Z,6.63
2018-11-04T10:31:03.723Z,6.73
2018-11-04T10:33:07.761Z,7.00
2018-11-04T10:35:12.073Z,7.30
2018-11-04T10:37:16.134Z,6.53
2018-11-04T10:39:20.191Z,7.03
2018-11-04T10:41:24.254Z,8.00
2018-11-04T10:43:28.367Z,7.10
2018-11-04T10:45:32.438Z,7.12
2018-11-04T10:47:36.554Z,7.17
2018-11-04T10:49:41.781Z,6.53
2018-11-04T10:51:45.864Z,6.03
2018-11-04T10:53:49.976Z,6.23
2018-11-04T10:55:54.235Z,6.12
2018-11-04T10:57:58.211Z,6.08
2018-11-04T11:00:02.296Z,6.43
2018-11-04T11:02:06.426Z,6.07
2018-11-04T11:04:10.477Z,6.47
2018-11-04T11:06:14.535Z,6.50
2018-11-04T11:08:18.584Z,5.93
2018-11-04T11:10:23.741Z,8.03
2018-11-04T11:12:28.429Z,7.60
2018-11-04T11:14:32.472Z,6.80
2018-11-04T11:16:36.746Z,5.80
2018-11-04T11:18:41.549Z,8.75
2018-11-04T11:20:45.649Z,6.30
2018-11-04T11:22:49.863Z,8.08
2018-11-04T11:24:53.849Z,5.75
2018-11-04T11:26:57.909Z,6.22
2018-11-04T11:29:02.034Z,6.60
2018-11-04T11:31:06.393Z,6.27
2018-11-04T11:33:10.549Z,5.47
2018-11-04T11:35:14.631Z,6.40
2018-11-04T11:37:18.802Z,7.40
2018-11-04T11:39:23.989Z,7.63
2018-11-04T11:41:28.623Z,6.63
2018-11-04T11:43:32.714Z,6.78
2018-11-04T11:45:37.512Z,6.93
2018-11-04T11:47:41.611Z,6.47
2018-11-04T11:49:45.698Z,6.57
2018-11-04T11:51:49.816Z,6.42
2018-11-04T11:53:53.895Z,6.57
2018-11-04T11:55:57.964Z,5.67
2018-11-04T11:58:02.182Z,6.00
2018-11-04T12:00:08.481Z,6.20
2018-11-04T12:02:12.595Z,6.15
2018-11-04T12:04:16.601Z,5.15
2018-11-04T12:06:20.668Z,6.20
2018-11-04T12:08:25.510Z,5.80
2018-11-04T12:10:29.570Z,6.40
2018-11-04T12:12:33.657Z,5.87
2018-11-04T12:14:37.721Z,5.80
2018-11-04T12:16:41.797Z,5.80
2018-11-04T12:18:45.870Z,5.73
2018-11-04T12:20:50.135Z,6.72
2018-11-04T12:22:54.894Z,5.72
2018-11-04T12:24:58.982Z,5.70
2018-11-04T12:27:03.230Z,5.80
2018-11-04T12:29:07.390Z,5.83
2018-11-04T12:31:11.534Z,5.60
2018-11-04T12:33:15.639Z,5.55
2018-11-04T12:35:19.806Z,5.53
2018-11-04T12:37:23.959Z,7.10
2018-11-04T12:39:28.120Z,6.10
2018-11-04T12:41:32.240Z,5.83
2018-11-04T12:43:36.341Z,5.83
2018-11-04T12:45:40.522Z,4.90
2018-11-04T12:47:44.625Z,6.80
2018-11-04T12:49:48.712Z,7.43
2018-11-04T12:51:52.914Z,6.55
2018-11-04T12:53:57.002Z,5.75
2018-11-04T12:56:01.126Z,6.20
2018-11-04T12:58:05.314Z,6.83
2018-11-04T13:00:12.927Z,6.70
2018-11-04T13:02:16.977Z,6.60
2018-11-04T13:04:21.023Z,6.80
2018-11-04T13:06:25.098Z,6.72
2018-11-04T13:08:29.205Z,8.03
2018-11-04T13:10:33.284Z,7.17
2018-11-04T13:12:37.555Z,8.03
2018-11-04T13:14:41.645Z,8.77
2018-11-04T13:16:45.750Z,8.58
2018-11-04T13:18:49.843Z,9.07
2018-11-04T13:20:53.922Z,8.45
2018-11-04T13:22:57.994Z,8.55
2018-11-04T13:25:02.105Z,8.40
2018-11-04T13:27:06.383Z,8.93
2018-11-04T13:29:10.374Z,8.37
2018-11-04T13:31:14.451Z,9.53
2018-11-04T13:33:18.509Z,9.03
2018-11-04T13:35:22.595Z,12.68
2018-11-04T13:37:26.696Z,10.90
2018-11-04T13:39:30.830Z,10.43
2018-11-04T13:41:34.889Z,9.30
2018-11-04T13:43:39.061Z,10.72
2018-11-04T13:45:43.115Z,9.30
2018-11-04T13:47:48.355Z,9.77
2018-11-04T13:49:52.443Z,10.93
2018-11-04T13:51:56.614Z,13.30
2018-11-04T13:54:00.679Z,9.40
2018-11-04T13:56:04.780Z,12.30
2018-11-04T13:58:08.930Z,12.47
2018-11-04T14:00:15.705Z,12.77
2018-11-04T14:02:19.808Z,10.28
2018-11-04T14:04:23.931Z,8.10
2018-11-04T14:06:28.105Z,8.57
2018-11-04T14:08:32.206Z,8.83
2018-11-04T14:10:36.290Z,9.07
2018-11-04T14:12:40.534Z,12.50
2018-11-04T14:14:44.625Z,10.05
2018-11-04T14:16:48.713Z,10.33
2018-11-04T14:18:52.841Z,10.87
2018-11-04T14:20:56.913Z,12.03
2018-11-04T14:23:00.962Z,10.87
2018-11-04T14:25:05.779Z,7.77
2018-11-04T14:27:09.861Z,7.58
2018-11-04T14:29:15.138Z,8.33
2018-11-04T14:31:19.847Z,8.10
2018-11-04T14:33:23.953Z,8.13
2018-11-04T14:35:28.093Z,9.10
2018-11-04T14:37:32.201Z,8.60
2018-11-04T14:39:36.333Z,8.35
2018-11-04T14:41:40.510Z,10.37
2018-11-04T14:43:44.651Z,9.33
2018-11-04T14:45:48.859Z,10.20
2018-11-04T14:47:52.912Z,8.98
2018-11-04T14:49:57.106Z,8.33
2018-11-04T14:52:01.209Z,9.63
2018-11-04T14:54:06.011Z,8.53
2018-11-04T14:56:10.050Z,8.13
2018-11-04T14:58:14.147Z,9.00
2018-11-04T15:00:18.246Z,8.57
2018-11-04T15:02:22.321Z,8.47
2018-11-04T15:04:26.534Z,7.95
2018-11-04T15:06:30.616Z,8.45
2018-11-04T15:08:34.766Z,7.85
2018-11-04T15:10:40.074Z,7.77
2018-11-04T15:12:44.402Z,9.50
2018-11-04T15:14:48.489Z,9.50
2018-11-04T15:16:52.630Z,9.80
2018-11-04T15:18:57.744Z,8.28
2018-11-04T15:21:01.742Z,8.73
2018-11-04T15:23:05.989Z,8.70
2018-11-04T15:25:10.065Z,8.40
2018-11-04T15:27:14.153Z,8.83
2018-11-04T15:29:18.275Z,7.93
2018-11-04T15:31:22.365Z,7.97
2018-11-04T15:33:26.493Z,7.83
2018-11-04T15:35:30.550Z,7.77
2018-11-04T15:37:34.651Z,7.35
2018-11-04T15:39:38.793Z,7.50
2018-11-04T15:41:42.853Z,6.87
2018-11-04T15:43:46.956Z,6.40
2018-11-04T15:45:51.070Z,5.95
2018-11-04T15:47:55.135Z,6.13
2018-11-04T15:50:00.379Z,5.67
2018-11-04T15:52:04.437Z,6.30
2018-11-04T15:54:08.542Z,5.37
2018-11-04T15:56:12.618Z,4.97
2018-11-04T15:58:16.722Z,5.20
2018-11-04T16:00:20.850Z,5.07
2018-11-04T16:02:24.991Z,4.00
2018-11-04T16:04:29.148Z,4.97
2018-11-04T16:06:33.290Z,4.30
2018-11-04T16:08:37.373Z,4.37
2018-11-04T16:10:41.487Z,4.80
2018-11-04T16:12:45.612Z,4.57
2018-11-04T16:14:49.814Z,4.25
2018-11-04T16:16:53.885Z,4.87
2018-11-04T16:18:58.010Z,5.15
2018-11-04T16:21:02.127Z,6.53
2018-11-04T16:23:06.425Z,4.97
2018-11-04T16:25:11.230Z,4.97
2018-11-04T16:27:15.402Z,5.70
2018-11-04T16:29:20.617Z,7.43
2018-11-04T16:31:24.912Z,6.57
2018-11-04T16:33:29.123Z,7.80
2018-11-04T16:35:33.215Z,8.30
2018-11-04T16:37:37.356Z,8.70
2018-11-04T16:39:41.409Z,7.37
2018-11-04T16:41:45.512Z,6.20
2018-11-04T16:43:49.768Z,5.65
2018-11-04T16:45:53.767Z,6.37
2018-11-04T16:47:57.840Z,5.53
2018-11-04T16:50:02.818Z,5.93
2018-11-04T16:52:06.894Z,5.63
2018-11-04T16:54:10.970Z,5.50
2018-11-04T16:56:15.120Z,5.23
2018-11-04T16:58:19.123Z,5.37
2018-11-04T17:00:23.207Z,5.50
2018-11-04T17:02:27.803Z,4.53
2018-11-04T17:04:31.987Z,4.90
2018-11-04T17:06:36.006Z,5.13
2018-11-04T17:08:40.094Z,4.17
2018-11-04T17:10:44.657Z,4.43
2018-11-04T17:12:48.844Z,4.87
2018-11-04T17:14:53.063Z,3.90
2018-11-04T17:16:57.186Z,4.72
2018-11-04T17:19:01.634Z,3.80
2018-11-04T17:21:05.908Z,4.08
2018-11-04T17:23:10.026Z,4.85
2018-11-04T17:25:14.271Z,4.47
2018-11-04T17:27:18.390Z,4.53
2018-11-04T17:29:22.473Z,6.23
2018-11-04T17:31:27.251Z,4.10
2018-11-04T17:33:31.397Z,4.17
2018-11-04T17:35:35.470Z,5.07
2018-11-04T17:37:39.796Z,4.92
2018-11-04T17:39:43.883Z,4.53
2018-11-04T17:41:47.997Z,4.20
2018-11-04T17:43:52.222Z,4.67
2018-11-04T17:45:56.281Z,4.80
2018-11-04T17:48:00.350Z,4.50
2018-11-04T17:50:04.454Z,4.73
2018-11-04T17:52:08.549Z,4.27
2018-11-04T17:54:12.851Z,4.37
2018-11-04T17:56:16.927Z,5.17
2018-11-04T17:58:22.154Z,4.73
2018-11-04T18:00:26.356Z,4.20
2018-11-04T18:02:30.550Z,5.20
2018-11-04T18:04:34.670Z,4.58
2018-11-04T18:06:38.951Z,4.28
2018-11-04T18:08:43.033Z,4.30
2018-11-04T18:10:47.224Z,4.22
2018-11-04T18:12:51.355Z,4.77
2018-11-04T18:14:55.549Z,5.07
2018-11-04T18:16:59.662Z,4.58
2018-11-04T18:19:03.766Z,5.00
2018-11-04T18:21:07.842Z,3.73
2018-11-04T18:23:11.973Z,4.33
2018-11-04T18:25:16.259Z,4.67
2018-11-04T18:27:20.309Z,3.92
2018-11-04T18:29:24.410Z,4.60
2018-11-04T18:31:28.526Z,5.13
2018-11-04T18:33:33.278Z,3.85
2018-11-04T18:35:37.650Z,4.10
2018-11-04T18:37:42.537Z,4.57
2018-11-04T18:39:46.600Z,4.12
2018-11-04T18:41:50.728Z,3.92
2018-11-04T18:43:55.090Z,5.07
2018-11-04T18:45:59.042Z,4.67
2018-11-04T18:48:03.090Z,4.03
2018-11-04T18:50:08.695Z,4.07
2018-11-04T18:52:12.876Z,4.08
2018-11-04T18:54:16.949Z,4.70
2018-11-04T18:56:21.217Z,5.13
2018-11-04T18:58:25.275Z,4.77
2018-11-04T19:00:30.031Z,4.33
2018-11-04T19:02:34.135Z,4.50
2018-11-04T19:04:38.207Z,4.65
2018-11-04T19:06:42.660Z,4.03
2018-11-04T19:08:46.766Z,4.25
2018-11-04T19:10:50.921Z,4.17
2018-11-04T19:12:55.019Z,4.53
2018-11-04T19:14:59.083Z,3.95
2018-11-04T19:17:03.169Z,4.87
2018-11-04T19:19:07.308Z,4.53
2018-11-04T19:21:11.469Z,4.12
2018-11-04T19:23:15.559Z,4.13
2018-11-04T19:25:20.022Z,6.10
2018-11-04T19:27:24.225Z,5.70
2018-11-04T19:29:28.894Z,4.47
2018-11-04T19:31:32.985Z,4.47
2018-11-04T19:33:37.048Z,4.12
2018-11-04T19:35:41.338Z,5.23
2018-11-04T19:37:45.409Z,4.30
2018-11-04T19:39:49.485Z,3.70
2018-11-04T19:41:53.580Z,4.15
2018-11-04T19:43:57.667Z,4.20
2018-11-04T19:46:02.843Z,4.97
2018-11-04T19:48:07.044Z,5.50
2018-11-04T19:50:12.393Z,4.80
2018-11-04T19:52:16.490Z,4.33
2018-11-04T19:54:20.652Z,3.67
2018-11-04T19:56:24.725Z,4.43
2018-11-04T19:58:28.825Z,4.30
2018-11-04T20:00:32.993Z,3.75
2018-11-04T20:02:37.078Z,4.10
2018-11-04T20:04:41.228Z,5.13
2018-11-04T20:06:45.303Z,4.83
2018-11-04T20:08:54.638Z,5.13
2018-11-04T20:10:58.695Z,4.40
2018-11-04T20:13:08.490Z,5.20
2018-11-04T20:15:12.619Z,4.73
2018-11-04T20:17:16.800Z,4.90
2018-11-04T20:19:26.334Z,4.65
2018-11-04T20:21:30.332Z,4.75
2018-11-04T20:23:34.393Z,4.60
2018-11-04T20:25:43.948Z,4.62
2018-11-04T20:27:48.015Z,4.45
2018-11-04T20:29:52.279Z,4.20
2018-11-04T20:32:01.593Z,4.53
2018-11-04T20:34:05.959Z,6.00
2018-11-04T20:36:10.063Z,5.00
2018-11-04T20:38:14.206Z,4.93
2018-11-04T20:40:23.675Z,4.00
2018-11-04T20:42:27.831Z,5.17
2018-11-04T20:44:35.438Z,6.33
2018-11-04T20:46:39.861Z,4.10
2018-11-04T20:48:49.205Z,4.37
2018-11-04T20:51:06.113Z,4.17
2018-11-04T20:53:10.169Z,4.70
2018-11-04T20:55:15.489Z,4.30
2018-11-04T20:57:24.838Z,4.08
2018-11-04T20:59:29.036Z,4.65
2018-11-04T21:01:33.116Z,5.75
2018-11-04T21:03:37.709Z,4.22
2018-11-04T21:05:41.743Z,4.00
2018-11-04T21:07:45.822Z,3.70
2018-11-04T21:09:49.987Z,3.77
2018-11-04T21:11:54.054Z,3.80
2018-11-04T21:13:58.149Z,3.70
2018-11-04T21:16:02.359Z,3.73
2018-11-04T21:18:06.394Z,4.10
2018-11-04T21:20:10.501Z,3.80
2018-11-04T21:22:14.583Z,3.95
2018-11-04T21:24:18.698Z,4.33
2018-11-04T21:26:23.706Z,4.23
2018-11-04T21:28:28.108Z,3.80
2018-11-04T21:30:31.986Z,4.22
2018-11-04T21:32:36.195Z,4.03
2018-11-04T21:34:40.188Z,9.70
2018-11-04T21:36:44.222Z,4.90
2018-11-04T21:38:48.474Z,4.50
2018-11-04T21:40:52.430Z,5.30
2018-11-04T21:42:56.586Z,4.77
2018-11-04T21:45:00.538Z,5.07
2018-11-04T21:47:04.873Z,4.13
2018-11-04T21:49:08.928Z,4.50
2018-11-04T21:51:13.119Z,3.93
2018-11-04T21:53:17.085Z,3.92
2018-11-04T21:55:21.277Z,3.97
2018-11-04T21:57:25.202Z,4.47
2018-11-04T21:59:29.549Z,4.85
2018-11-04T22:01:33.722Z,5.40
2018-11-04T22:03:37.907Z,4.60
2018-11-04T22:05:41.914Z,4.55
2018-11-04T22:07:45.969Z,4.80
2018-11-04T22:09:50.029Z,4.22
2018-11-04T22:11:54.099Z,8.55
2018-11-04T22:13:58.309Z,5.85
2018-11-04T22:16:02.214Z,5.10
2018-11-04T22:18:06.509Z,4.80
2018-11-04T22:20:13.078Z,4.33
2018-11-04T22:22:17.228Z,4.30
2018-11-04T22:24:21.232Z,5.13
2018-11-04T22:26:25.319Z,5.27
2018-11-04T22:28:29.410Z,4.53
2018-11-04T22:30:33.453Z,4.80
2018-11-04T22:32:37.667Z,5.70
2018-11-04T22:34:41.766Z,6.30
2018-11-04T22:36:45.825Z,4.77
2018-11-04T22:38:49.843Z,4.63
2018-11-04T22:40:53.971Z,4.47
2018-11-04T22:42:58.022Z,4.72
2018-11-04T22:45:02.042Z,4.80
2018-11-04T22:47:06.372Z,5.17
2018-11-04T22:49:10.465Z,5.78
2018-11-04T22:51:14.493Z,5.10
2018-11-04T22:53:18.550Z,5.83
2018-11-04T22:55:22.584Z,5.13
2018-11-04T22:57:26.645Z,4.33
2018-11-04T22:59:30.948Z,4.92
2018-11-04T23:01:35.033Z,5.30
2018-11-04T23:03:39.069Z,4.53
2018-11-04T23:05:44.213Z,4.83
2018-11-04T23:07:48.267Z,4.73
2018-11-04T23:09:52.366Z,5.53
2018-11-04T23:11:56.401Z,4.93
2018-11-04T23:14:00.505Z,4.53
2018-11-04T23:16:04.742Z,5.43
2018-11-04T23:18:09.786Z,4.80
2018-11-04T23:20:13.818Z,5.10
2018-11-04T23:22:17.867Z,4.75
2018-11-04T23:24:22.002Z,4.57
2018-11-04T23:26:26.070Z,4.70
2018-11-04T23:28:30.136Z,4.37
2018-11-04T23:30:34.209Z,4.50
2018-11-04T23:32:38.295Z,4.70
2018-11-04T23:34:42.380Z,5.07
2018-11-04T23:36:46.587Z,4.95
2018-11-04T23:38:51.292Z,4.67
2018-11-04T23:40:55.349Z,5.40
2018-11-04T23:42:59.410Z,5.10
2018-11-04T23:45:03.536Z,4.90
2018-11-04T23:47:07.595Z,5.05
2018-11-04T23:49:11.638Z,4.50
2018-11-04T23:51:15.670Z,4.47
2018-11-04T23:53:19.712Z,4.62
2018-11-04T23:55:23.774Z,4.67
2018-11-04T23:57:27.878Z,4.60
2018-11-04T23:59:31.977Z,3.87
